createdAt,value
2023-04-16T00:00:32.640Z,182.26
2023-04-16T00:01:33.293Z,182.26
2023-04-16T00:02:34.009Z,182.26
2023-04-16T00:03:35.055Z,182.26
2023-04-16T00:04:36.491Z,182.26
2023-04-16T00:05:37.265Z,182.26
2023-04-16T00:06:37.915Z,182.26
2023-04-16T00:07:38.620Z,182.26
2023-04-16T00:08:39.262Z,182.26
2023-04-16T00:09:39.932Z,182.26
2023-04-16T00:10:40.547Z,182.26
2023-04-16T00:11:41.157Z,182.26
2023-04-16T00:12:41.731Z,182.26
2023-04-16T00:13:42.347Z,182.26
2023-04-16T00:14:42.934Z,182.26
2023-04-16T00:15:43.510Z,182.26
2023-04-16T00:16:44.165Z,182.26
2023-04-16T00:17:44.858Z,182.26
2023-04-16T00:18:45.479Z,182.26
2023-04-16T00:19:46.178Z,182.26
2023-04-16T00:20:46.759Z,182.26
2023-04-16T00:21:47.376Z,182.26
2023-04-16T00:22:48.026Z,182.26
2023-04-16T00:23:48.692Z,182.26
2023-04-16T00:24:49.280Z,182.26
2023-04-16T00:25:49.896Z,182.26
2023-04-16T00:26:50.537Z,182.26
2023-04-16T00:27:51.228Z,182.26
2023-04-16T00:28:51.822Z,182.26
2023-04-16T00:29:52.436Z,182.26
2023-04-16T00:30:53.040Z,182.26
2023-04-16T00:31:53.755Z,182.26
2023-04-16T00:32:54.383Z,182.26
2023-04-16T00:33:55.179Z,182.26
2023-04-16T00:34:55.775Z,182.26
2023-04-16T00:35:56.381Z,182.26
2023-04-16T00:36:57.050Z,182.26
2023-04-16T00:37:57.663Z,182.26
2023-04-16T00:38:58.298Z,182.26
2023-04-16T00:39:58.928Z,182.26
2023-04-16T00:40:59.519Z,182.26
2023-04-16T00:42:00.101Z,182.26
2023-04-16T00:43:00.714Z,182.26
2023-04-16T00:44:01.326Z,182.26
2023-04-16T00:45:01.967Z,182.26
2023-04-16T00:46:02.764Z,182.26
2023-04-16T00:47:03.447Z,182.26
2023-04-16T00:48:04.172Z,182.26
2023-04-16T00:49:05.205Z,182.26
2023-04-16T00:50:05.800Z,182.26
2023-04-16T00:51:06.381Z,182.26
2023-04-16T00:52:07.108Z,182.26
2023-04-16T00:53:07.683Z,182.26
2023-04-16T00:54:08.367Z,182.26
2023-04-16T00:55:08.936Z,182.26
2023-04-16T00:56:09.580Z,182.26
2023-04-16T00:57:10.196Z,182.26
2023-04-16T00:58:10.905Z,182.26
2023-04-16T00:59:11.596Z,182.26
2023-04-16T01:00:12.380Z,182.26
2023-04-16T01:01:13.011Z,182.26
2023-04-16T01:02:13.765Z,182.26
2023-04-16T01:03:14.617Z,182.26
2023-04-16T01:04:15.911Z,182.26
2023-04-16T01:05:16.781Z,182.26
2023-04-16T01:06:17.437Z,182.26
2023-04-16T01:07:18.136Z,182.26
2023-04-16T01:08:18.957Z,182.26
2023-04-16T01:09:19.604Z,182.26
2023-04-16T01:10:20.255Z,182.26
2023-04-16T01:11:20.902Z,182.26
2023-04-16T01:12:21.520Z,182.26
2023-04-16T01:13:22.170Z,182.26
2023-04-16T01:14:22.774Z,182.26
2023-04-16T01:15:23.411Z,182.26
2023-04-16T01:16:24.122Z,182.26
2023-04-16T01:17:24.936Z,182.26
2023-04-16T01:18:25.678Z,182.26
2023-04-16T01:19:26.288Z,182.26
2023-04-16T01:20:26.898Z,182.26
2023-04-16T01:21:27.601Z,182.26
2023-04-16T01:22:28.290Z,182.26
2023-04-16T01:23:28.883Z,182.26
2023-04-16T01:24:29.508Z,182.26
2023-04-16T01:25:30.124Z,182.26
2023-04-16T01:26:30.749Z,182.26
2023-04-16T01:27:31.365Z,182.26
2023-04-16T01:28:31.968Z,182.26
2023-04-16T01:29:32.544Z,182.26
2023-04-16T01:30:33.136Z,182.26
2023-04-16T01:31:33.803Z,182.26
2023-04-16T01:32:34.520Z,182.26
2023-04-16T01:33:35.222Z,182.26
2023-04-16T01:34:35.797Z,182.26
2023-04-16T01:35:36.412Z,182.26
2023-04-16T01:36:37.024Z,182.26
2023-04-16T01:37:37.633Z,182.26
2023-04-16T01:38:38.231Z,182.26
2023-04-16T01:39:38.879Z,182.26
2023-04-16T01:40:39.462Z,182.26
2023-04-16T01:41:40.035Z,182.26
2023-04-16T01:42:40.595Z,182.26
2023-04-16T01:43:41.201Z,182.26
2023-04-16T01:44:42.021Z,182.26
2023-04-16T01:45:42.609Z,182.26
2023-04-16T01:46:43.415Z,182.26
2023-04-16T01:47:44.271Z,182.26
2023-04-16T01:48:45.042Z,182.26
2023-04-16T01:49:45.726Z,182.26
2023-04-16T01:50:46.460Z,182.26
2023-04-16T01:51:47.047Z,182.26
2023-04-16T01:52:47.642Z,182.26
2023-04-16T01:53:48.267Z,182.26
2023-04-16T01:54:48.903Z,182.26
2023-04-16T01:55:49.505Z,182.26
2023-04-16T01:56:50.086Z,182.26
2023-04-16T01:57:50.703Z,182.26
2023-04-16T01:58:51.329Z,182.26
2023-04-16T01:59:51.932Z,182.26
2023-04-16T02:00:52.561Z,182.26
2023-04-16T02:01:53.640Z,182.26
2023-04-16T02:02:54.449Z,182.26
2023-04-16T02:03:55.442Z,182.26
2023-04-16T02:04:56.236Z,182.26
2023-04-16T02:05:56.853Z,182.26
2023-04-16T02:06:57.467Z,182.26
2023-04-16T02:07:58.081Z,182.26
2023-04-16T02:08:58.808Z,182.26
2023-04-16T02:09:59.430Z,182.26
2023-04-16T02:11:00.023Z,182.26
2023-04-16T02:12:00.624Z,182.26
2023-04-16T02:13:01.205Z,182.26
2023-04-16T02:14:01.803Z,182.26
2023-04-16T02:15:02.396Z,182.26
2023-04-16T02:16:03.076Z,182.26
2023-04-16T02:17:03.840Z,182.26
2023-04-16T02:18:04.442Z,182.26
2023-04-16T02:19:05.300Z,182.26
2023-04-16T02:20:05.897Z,182.26
2023-04-16T02:21:06.513Z,182.26
2023-04-16T02:22:07.145Z,182.26
2023-04-16T02:23:07.876Z,182.26
2023-04-16T02:24:08.499Z,182.26
2023-04-16T02:25:09.186Z,182.26
2023-04-16T02:26:09.765Z,182.26
2023-04-16T02:27:10.364Z,182.26
2023-04-16T02:28:10.964Z,182.26
2023-04-16T02:29:11.808Z,182.26
2023-04-16T02:30:12.542Z,182.26
2023-04-16T02:31:13.149Z,182.26
2023-04-16T02:32:13.906Z,182.26
2023-04-16T02:33:14.665Z,182.26
2023-04-16T02:34:15.263Z,182.26
2023-04-16T02:35:15.842Z,182.26
2023-04-16T02:36:16.476Z,182.26
2023-04-16T02:37:17.088Z,182.26
2023-04-16T02:38:17.745Z,182.26
2023-04-16T02:39:18.321Z,182.26
2023-04-16T02:40:19.008Z,182.26
2023-04-16T02:41:19.592Z,182.26
2023-04-16T02:42:20.193Z,182.26
2023-04-16T02:43:20.791Z,182.26
2023-04-16T02:44:21.399Z,182.26
2023-04-16T02:45:21.992Z,182.26
2023-04-16T02:46:22.599Z,182.26
2023-04-16T02:47:23.489Z,182.26
2023-04-16T02:48:24.146Z,182.26
2023-04-16T02:49:24.772Z,182.26
2023-04-16T02:50:25.437Z,182.26
2023-04-16T02:51:26.087Z,182.26
2023-04-16T02:52:26.683Z,182.26
2023-04-16T02:53:27.369Z,182.26
2023-04-16T02:54:27.976Z,182.26
2023-04-16T02:55:28.634Z,182.26
2023-04-16T02:56:29.264Z,182.26
2023-04-16T02:57:29.861Z,182.26
2023-04-16T02:58:30.484Z,182.26
2023-04-16T02:59:31.066Z,182.26
2023-04-16T03:00:31.692Z,182.26
2023-04-16T03:01:32.407Z,182.26
2023-04-16T03:02:33.152Z,182.26
2023-04-16T03:03:33.972Z,182.26
2023-04-16T03:04:34.625Z,182.26
2023-04-16T03:05:35.329Z,182.26
2023-04-16T03:06:35.943Z,182.26
2023-04-16T03:07:36.545Z,182.26
2023-04-16T03:08:37.182Z,182.26
2023-04-16T03:09:37.765Z,182.26
2023-04-16T03:10:38.509Z,182.26
2023-04-16T03:11:39.123Z,182.26
2023-04-16T03:12:39.719Z,182.26
2023-04-16T03:13:40.316Z,182.26
2023-04-16T03:14:40.881Z,182.26
2023-04-16T03:15:41.539Z,182.26
2023-04-16T03:16:42.284Z,182.26
2023-04-16T03:17:42.926Z,182.26
2023-04-16T03:18:43.558Z,182.26
2023-04-16T03:19:44.145Z,182.26
2023-04-16T03:20:44.719Z,182.26
2023-04-16T03:21:45.347Z,182.26
2023-04-16T03:22:45.946Z,182.26
2023-04-16T03:23:46.563Z,182.26
2023-04-16T03:24:47.150Z,182.26
2023-04-16T03:25:47.803Z,182.26
2023-04-16T03:26:48.420Z,182.26
2023-04-16T03:27:49.093Z,182.26
2023-04-16T03:28:49.657Z,182.26
2023-04-16T03:29:50.242Z,182.26
2023-04-16T03:30:50.833Z,182.26
2023-04-16T03:31:51.568Z,182.26
2023-04-16T03:32:52.237Z,182.26
2023-04-16T03:33:53.028Z,182.26
2023-04-16T03:34:53.629Z,182.26
2023-04-16T03:35:54.247Z,182.26
2023-04-16T03:36:54.853Z,182.26
2023-04-16T03:37:55.716Z,182.26
2023-04-16T03:38:56.589Z,182.26
2023-04-16T03:39:57.261Z,182.26
2023-04-16T10:12:23.117Z,182.26
2023-04-16T10:13:23.785Z,182.26
2023-04-16T10:14:24.381Z,182.26
2023-04-16T10:15:25.078Z,182.26
2023-04-16T10:16:25.678Z,182.26
2023-04-16T10:17:26.423Z,182.26
2023-04-16T10:18:27.289Z,182.26
2023-04-16T10:19:27.896Z,182.26
2023-04-16T10:20:28.540Z,182.26
2023-04-16T10:21:29.146Z,182.26
2023-04-16T10:22:29.894Z,182.26
2023-04-16T10:23:30.513Z,182.26
2023-04-16T10:24:31.134Z,182.26
2023-04-16T10:25:31.759Z,182.26
2023-04-16T10:26:32.370Z,182.26
2023-04-16T10:27:33.014Z,182.26
2023-04-16T10:28:33.669Z,182.26
2023-04-16T10:29:34.298Z,182.26
2023-04-16T10:30:34.992Z,182.26
2023-04-16T10:31:35.789Z,182.26
2023-04-16T10:32:36.462Z,182.26
2023-04-16T10:33:37.288Z,182.26
2023-04-16T10:34:37.939Z,182.26
2023-04-16T10:35:38.623Z,182.26
2023-04-16T10:36:39.252Z,182.26
2023-04-16T10:37:39.854Z,182.26
2023-04-16T10:38:40.500Z,182.26
2023-04-16T10:39:41.177Z,182.26
2023-04-16T10:40:41.775Z,182.26
2023-04-16T10:41:42.346Z,182.26
2023-04-16T10:42:42.917Z,182.26
2023-04-16T10:43:43.556Z,182.26
2023-04-16T10:44:45.535Z,182.26
2023-04-16T10:45:46.407Z,182.26
2023-04-16T10:46:47.021Z,182.26
2023-04-16T10:47:47.663Z,182.26
2023-04-16T10:48:50.067Z,182.26
2023-04-16T10:49:51.508Z,182.26
2023-04-16T10:50:52.288Z,182.26
2023-04-16T10:51:52.927Z,182.26
2023-04-16T10:52:53.534Z,182.26
2023-04-16T10:53:54.290Z,182.26
2023-04-16T10:54:54.903Z,182.26
2023-04-16T10:55:55.522Z,182.26
2023-04-16T10:56:56.111Z,182.26
2023-04-16T10:57:57.261Z,182.26
2023-04-16T10:58:57.915Z,182.26
2023-04-16T10:59:58.517Z,182.26
2023-04-16T11:00:59.173Z,182.26
2023-04-16T11:01:59.848Z,182.26
2023-04-16T11:03:00.787Z,182.26
2023-04-16T11:04:01.813Z,182.26
2023-04-16T11:05:03.052Z,182.26
2023-04-16T11:06:04.141Z,182.26
2023-04-16T11:07:04.831Z,182.26
2023-04-16T11:08:05.477Z,182.26
2023-04-16T11:09:06.110Z,182.26
2023-04-16T11:10:06.801Z,182.26
2023-04-16T11:12:08.145Z,182.26
2023-04-16T11:13:08.726Z,182.26
2023-04-16T11:15:10.612Z,182.26
2023-04-16T11:16:11.320Z,182.26
2023-04-16T11:17:12.016Z,182.26
2023-04-16T11:18:12.636Z,182.26
2023-04-16T11:19:13.261Z,182.26
2023-04-16T11:20:17.949Z,182.26
2023-04-16T11:21:15.347Z,182.26
2023-04-16T11:23:16.650Z,182.26
2023-04-16T11:24:17.321Z,182.26
2023-04-16T11:25:17.938Z,182.26
2023-04-16T11:27:19.389Z,182.26
2023-04-16T11:28:19.997Z,182.26
2023-04-16T11:29:20.647Z,182.26
2023-04-16T11:30:21.243Z,182.26
2023-04-16T11:31:22.074Z,182.26
2023-04-16T11:32:22.842Z,182.26
2023-04-16T11:33:23.636Z,182.26
2023-04-16T11:36:27.378Z,182.26
2023-04-16T11:37:28.543Z,182.26
2023-04-16T11:38:29.213Z,182.26
2023-04-16T11:39:29.889Z,182.26
2023-04-16T11:40:30.510Z,182.26
2023-04-16T11:41:31.164Z,182.26
2023-04-16T11:42:31.817Z,182.26
2023-04-16T11:43:32.513Z,182.26
2023-04-16T11:44:33.220Z,182.26
2023-04-16T11:45:33.846Z,182.26
2023-04-16T11:46:34.461Z,182.26
2023-04-16T11:47:35.122Z,182.26
2023-04-16T11:49:36.458Z,182.26
2023-04-16T11:50:37.089Z,182.26
2023-04-16T11:52:38.305Z,182.26
2023-04-16T11:54:39.544Z,182.26
2023-04-16T11:55:40.125Z,182.26
2023-04-16T11:56:40.869Z,182.26
2023-04-16T11:57:41.477Z,182.26
2023-04-16T11:58:42.526Z,182.26
2023-04-16T12:00:01.160Z,182.26
2023-04-16T12:00:45.996Z,182.26
2023-04-16T12:01:46.670Z,182.26
2023-04-16T12:02:47.373Z,182.26
2023-04-16T12:03:48.188Z,182.26
2023-04-16T12:04:49.363Z,182.26
2023-04-16T12:05:50.327Z,182.26
2023-04-16T12:06:51.021Z,182.26
2023-04-16T12:07:51.682Z,182.26
2023-04-16T12:08:52.410Z,182.26
2023-04-16T12:09:53.174Z,182.26
2023-04-16T12:10:53.817Z,182.26
2023-04-16T12:11:54.485Z,182.26
2023-04-16T12:12:55.103Z,182.26
2023-04-16T12:13:55.753Z,182.26
2023-04-16T12:14:56.373Z,182.26
2023-04-16T12:15:56.984Z,182.26
2023-04-16T12:16:57.691Z,182.26
2023-04-16T12:17:58.689Z,182.26
2023-04-16T12:18:59.506Z,182.26
2023-04-16T12:20:00.141Z,182.26
2023-04-16T12:21:01.020Z,182.26
2023-04-16T12:22:01.642Z,182.26
2023-04-16T12:23:02.315Z,182.26
2023-04-16T12:24:02.962Z,182.26
2023-04-16T12:25:03.567Z,182.26
2023-04-16T12:26:04.205Z,182.26
2023-04-16T12:27:04.898Z,182.26
2023-04-16T12:28:05.533Z,182.26
2023-04-16T12:29:06.145Z,182.26
2023-04-16T12:30:06.784Z,182.26
2023-04-16T12:31:07.447Z,182.26
2023-04-16T12:32:08.391Z,182.26
2023-04-16T12:33:09.090Z,182.26
2023-04-16T12:34:10.014Z,182.26
2023-04-16T12:35:10.630Z,182.26
2023-04-16T12:36:11.251Z,182.26
2023-04-16T12:37:11.914Z,182.26
2023-04-16T12:38:12.497Z,182.26
2023-04-16T12:39:13.124Z,182.26
2023-04-16T12:40:13.728Z,182.26
2023-04-16T12:41:14.476Z,182.26
2023-04-16T12:42:15.107Z,182.26
2023-04-16T12:43:15.686Z,182.26
2023-04-16T12:44:16.301Z,182.26
2023-04-16T12:45:17.050Z,182.26
2023-04-16T12:46:17.778Z,182.26
2023-04-16T12:47:18.518Z,182.26
2023-04-16T12:48:19.195Z,182.26
2023-04-16T12:49:19.837Z,182.26
2023-04-16T12:50:20.460Z,182.26
2023-04-16T12:51:21.085Z,182.26
2023-04-16T12:52:23.697Z,182.26
2023-04-16T12:53:24.450Z,182.26
2023-04-16T12:54:25.057Z,182.26
2023-04-16T12:55:25.714Z,182.26
2023-04-16T12:56:26.342Z,182.26
2023-04-16T12:57:27.096Z,182.26
2023-04-16T12:58:27.702Z,182.26
2023-04-16T12:59:28.278Z,182.26
2023-04-16T13:00:28.900Z,182.26
2023-04-16T13:01:29.751Z,182.26
2023-04-16T13:02:30.645Z,182.26
2023-04-16T13:03:31.773Z,182.26
2023-04-16T13:04:32.654Z,182.26
2023-04-16T13:05:33.637Z,182.26
2023-04-16T13:06:34.267Z,182.26
2023-04-16T13:07:34.882Z,182.26
2023-04-16T13:08:35.516Z,182.26
2023-04-16T13:09:37.119Z,182.26
2023-04-16T13:10:37.346Z,182.26
2023-04-16T13:11:37.999Z,182.26
2023-04-16T13:12:38.650Z,182.26
2023-04-16T13:13:39.244Z,182.26
2023-04-16T13:14:39.838Z,182.26
2023-04-16T13:15:40.478Z,182.26
2023-04-16T13:16:41.180Z,182.26
2023-04-16T13:17:41.879Z,182.26
2023-04-16T13:18:42.668Z,182.26
2023-04-16T13:19:43.265Z,182.26
2023-04-16T13:20:43.864Z,182.26
2023-04-16T13:21:44.465Z,182.26
2023-04-16T13:22:45.064Z,182.26
2023-04-16T13:23:45.861Z,182.26
2023-04-16T13:24:46.455Z,182.26
2023-04-16T13:25:48.428Z,182.26
2023-04-16T13:26:48.029Z,182.26
2023-04-16T13:27:48.625Z,182.26
2023-04-16T13:28:49.291Z,182.26
2023-04-16T13:29:49.890Z,182.26
2023-04-16T13:33:52.795Z,182.26
2023-04-16T13:34:53.579Z,182.26
2023-04-16T13:36:54.844Z,182.26
2023-04-16T13:38:56.072Z,182.26
2023-04-16T13:39:56.709Z,182.26
2023-04-16T13:40:57.347Z,182.26
2023-04-16T13:42:58.545Z,182.26
2023-04-16T13:43:59.173Z,182.26
2023-04-16T13:44:59.776Z,182.26
2023-04-16T13:46:00.468Z,182.26
2023-04-16T13:47:01.168Z,182.26
2023-04-16T13:48:02.011Z,182.26
2023-04-16T13:52:04.601Z,182.26
2023-04-16T13:59:09.134Z,182.26
2023-04-16T14:02:11.365Z,182.26
2023-04-16T14:03:12.147Z,182.26
2023-04-16T14:09:16.094Z,182.26
2023-04-16T14:10:16.797Z,182.26
2023-04-16T14:11:17.421Z,182.26
2023-04-16T14:12:18.027Z,182.26
2023-04-16T14:13:18.736Z,182.26
2023-04-16T14:14:19.397Z,182.26
2023-04-16T14:15:20.036Z,182.26
2023-04-16T14:16:20.687Z,182.26
2023-04-16T14:17:21.433Z,182.26
2023-04-16T14:18:22.283Z,182.26
2023-04-16T14:19:22.872Z,182.26
2023-04-16T14:20:23.587Z,182.26
2023-04-16T14:21:24.207Z,182.26
2023-04-16T14:22:24.839Z,182.26
2023-04-16T14:23:25.465Z,182.26
2023-04-16T14:24:26.052Z,182.26
2023-04-16T14:25:26.684Z,182.26
2023-04-16T14:26:27.426Z,182.26
2023-04-16T14:27:28.063Z,182.26
2023-04-16T14:28:28.666Z,182.26
2023-04-16T14:29:29.283Z,182.26
2023-04-16T14:30:29.877Z,182.26
2023-04-16T14:31:30.624Z,182.26
2023-04-16T14:32:31.355Z,182.26
2023-04-16T14:33:32.171Z,182.26
2023-04-16T14:34:33.003Z,182.26
2023-04-16T14:35:33.622Z,182.26
2023-04-16T14:36:34.239Z,182.26
2023-04-16T14:37:34.835Z,182.26
2023-04-16T14:38:35.407Z,182.26
2023-04-16T14:39:35.885Z,182.26
2023-04-16T14:40:36.494Z,182.26
2023-04-16T14:41:37.098Z,182.26
2023-04-16T14:42:37.752Z,182.26
2023-04-16T14:43:39.920Z,182.26
2023-04-16T14:44:41.253Z,182.26
2023-04-16T14:45:41.910Z,182.26
2023-04-16T14:46:42.584Z,182.26
2023-04-16T14:47:43.223Z,182.26
2023-04-16T14:48:43.974Z,182.26
2023-04-16T14:49:44.591Z,182.26
2023-04-16T14:50:45.350Z,182.26
2023-04-16T14:51:46.017Z,182.26
2023-04-16T14:52:46.617Z,182.26
2023-04-16T14:53:47.218Z,182.26
2023-04-16T14:54:47.819Z,182.26
2023-04-16T14:55:48.410Z,182.26
2023-04-16T14:56:48.993Z,182.26
2023-04-16T14:57:49.624Z,182.26
2023-04-16T14:58:50.286Z,182.26
2023-04-16T14:59:50.928Z,182.26
2023-04-16T15:00:51.527Z,182.26
2023-04-16T15:01:52.190Z,182.26
2023-04-16T15:02:52.894Z,182.26
2023-04-16T15:03:54.007Z,182.26
2023-04-16T15:04:54.844Z,182.26
2023-04-16T15:05:55.804Z,182.26
2023-04-16T15:06:56.655Z,182.26
2023-04-16T15:07:57.299Z,182.26
2023-04-16T15:08:57.901Z,182.26
2023-04-16T15:09:58.536Z,182.26
2023-04-16T15:10:59.141Z,182.26
2023-04-16T15:11:59.882Z,182.26
2023-04-16T15:13:00.487Z,182.26
2023-04-16T15:14:01.381Z,182.26
2023-04-16T15:15:02.169Z,182.26
2023-04-16T15:16:02.788Z,182.26
2023-04-16T15:17:03.544Z,182.26
2023-04-16T15:18:04.544Z,182.26
2023-04-16T15:19:05.543Z,182.26
2023-04-16T15:20:06.151Z,182.26
2023-04-16T15:21:06.928Z,182.26
2023-04-16T15:22:07.649Z,182.26
2023-04-16T15:23:08.262Z,182.26
2023-04-16T15:24:09.114Z,182.26
2023-04-16T15:25:10.001Z,182.26
2023-04-16T15:26:10.627Z,182.26
2023-04-16T15:27:11.956Z,182.26
2023-04-16T15:28:12.688Z,182.26
2023-04-16T15:29:13.287Z,182.26
2023-04-16T15:30:13.917Z,182.26
2023-04-16T15:31:14.583Z,182.26
2023-04-16T15:32:15.333Z,182.26
2023-04-16T15:33:16.001Z,182.26
2023-04-16T15:34:16.655Z,182.26
2023-04-16T15:35:17.248Z,182.26
2023-04-16T15:36:17.875Z,182.26
2023-04-16T15:37:18.485Z,182.26
2023-04-16T15:38:19.109Z,182.26
2023-04-16T15:39:19.724Z,182.26
2023-04-16T15:40:20.348Z,182.26
2023-04-16T15:41:20.973Z,182.26
2023-04-16T15:42:21.591Z,182.26
2023-04-16T15:43:22.229Z,182.26
2023-04-16T15:44:22.833Z,182.26
2023-04-16T15:45:23.452Z,182.26
2023-04-16T15:46:24.113Z,182.26
2023-04-16T15:47:24.991Z,182.26
2023-04-16T15:48:25.920Z,182.26
2023-04-16T15:49:26.862Z,182.26
2023-04-16T15:50:27.523Z,182.26
2023-04-16T15:52:28.996Z,182.26
2023-04-16T15:53:29.629Z,182.26
2023-04-16T15:54:30.259Z,182.26
2023-04-16T15:55:31.072Z,182.26
2023-04-16T15:56:31.701Z,182.26
2023-04-16T15:57:32.357Z,182.26
2023-04-16T15:58:32.935Z,182.26
2023-04-16T15:59:33.596Z,182.26
2023-04-16T16:00:34.192Z,182.26
2023-04-16T16:03:36.968Z,182.26
2023-04-16T16:04:38.298Z,182.26
2023-04-16T16:05:39.235Z,182.26
2023-04-16T16:06:39.910Z,182.26
2023-04-16T16:07:40.583Z,182.26
2023-04-16T16:08:41.193Z,182.26
2023-04-16T16:09:41.845Z,182.26
2023-04-16T16:10:42.467Z,182.26
2023-04-16T16:11:43.133Z,182.26
2023-04-16T16:12:43.775Z,182.26
2023-04-16T16:13:44.398Z,182.26
2023-04-16T16:14:45.030Z,182.26
2023-04-16T16:15:45.703Z,182.26
2023-04-16T16:16:46.716Z,8.93
2023-04-16T16:17:47.676Z,8.94
2023-04-16T16:18:48.890Z,9.02
2023-04-16T16:19:50.027Z,8.99
2023-04-16T16:20:50.881Z,8.94
2023-04-16T16:21:51.815Z,8.91
2023-04-16T16:22:52.786Z,8.9
2023-04-16T16:23:53.849Z,8.94
2023-04-16T16:24:54.846Z,9
2023-04-16T16:25:55.737Z,9.02
2023-04-16T16:26:56.695Z,8.93
2023-04-16T16:27:57.635Z,8.96
2023-04-16T16:28:58.561Z,8.98
2023-04-16T16:29:59.485Z,9
2023-04-16T16:31:00.514Z,8.95
2023-04-16T16:32:01.469Z,9.02
2023-04-16T16:33:02.802Z,9
2023-04-16T16:34:04.144Z,8.96
2023-04-16T16:35:05.143Z,9
2023-04-16T16:36:06.064Z,9.01
2023-04-16T16:37:06.998Z,9
2023-04-16T16:38:07.854Z,8.98
2023-04-16T16:39:08.806Z,9.07
2023-04-16T16:40:10.637Z,9.01
2023-04-16T16:41:11.528Z,9.05
2023-04-16T16:42:12.532Z,9.11
2023-04-16T16:43:13.452Z,9.13
2023-04-16T16:44:14.751Z,9.19
2023-04-16T16:45:15.683Z,9.09
2023-04-16T16:46:16.584Z,9.1
2023-04-16T16:47:17.736Z,9.18
2023-04-16T16:48:18.633Z,9.22
2023-04-16T16:49:19.494Z,9.18
2023-04-16T16:50:20.479Z,9.24
2023-04-16T16:51:21.363Z,9.23
2023-04-16T16:52:22.372Z,9.27
2023-04-16T16:53:23.242Z,9.24
2023-04-16T16:54:24.158Z,9.24
2023-04-16T16:55:25.089Z,9.22
2023-04-16T16:56:26.088Z,9.19
2023-04-16T16:57:26.974Z,9.12
2023-04-16T16:58:27.883Z,9.08
2023-04-16T16:59:28.780Z,9.11
2023-04-16T17:00:30.421Z,9.14
2023-04-16T17:01:31.363Z,9.22
2023-04-16T17:02:32.898Z,9.16
2023-04-16T17:03:34.442Z,9.16
2023-04-16T17:04:35.908Z,9.16
2023-04-16T17:05:37.304Z,9.12
2023-04-16T17:06:38.305Z,9.08
2023-04-16T17:07:39.259Z,9.11
2023-04-16T17:08:40.325Z,9.1
2023-04-16T17:09:41.257Z,9.12
2023-04-16T17:10:42.391Z,9.12
2023-04-16T17:11:43.251Z,9.15
2023-04-16T17:12:44.155Z,9.12
2023-04-16T17:13:45.016Z,9.17
2023-04-16T17:14:45.925Z,9.22
2023-04-16T17:15:46.919Z,9.15
2023-04-16T17:16:47.873Z,9.12
2023-04-16T17:17:49.098Z,9.13
2023-04-16T17:18:50.254Z,9.18
2023-04-16T17:19:51.193Z,9.09
2023-04-16T17:20:52.208Z,9.09
2023-04-16T17:21:53.180Z,9.12
2023-04-16T17:22:54.090Z,9.11
2023-04-16T17:23:55.014Z,9.09
2023-04-16T17:24:55.934Z,9.11
2023-04-16T17:25:56.810Z,9.13
2023-04-16T17:26:57.712Z,9.17
2023-04-16T17:27:58.585Z,9.16
2023-04-16T17:28:59.452Z,9.17
2023-04-16T17:30:00.343Z,9.2
2023-04-16T17:31:01.368Z,9.16
2023-04-16T17:32:02.427Z,9.15
2023-04-16T17:33:03.968Z,9.1
2023-04-16T17:34:05.285Z,9.13
2023-04-16T17:35:06.177Z,9.22
2023-04-16T17:36:07.431Z,9.25
2023-04-16T17:37:08.376Z,9.25
2023-04-16T17:38:09.286Z,9.23
2023-04-16T17:39:10.207Z,9.25
2023-04-16T17:40:11.111Z,9.21
2023-04-16T17:41:12.025Z,9.19
2023-04-16T17:42:12.972Z,9.23
2023-04-16T17:43:13.864Z,9.07
2023-04-16T17:44:14.789Z,9.07
2023-04-16T17:45:16.477Z,9.05
2023-04-16T17:46:17.391Z,9.1
2023-04-16T17:47:18.537Z,9.1
2023-04-16T17:48:19.636Z,9.13
2023-04-16T17:49:20.567Z,9.12
2023-04-16T17:50:21.441Z,9.02
2023-04-16T17:51:22.365Z,9
2023-04-16T17:52:23.291Z,9.04
2023-04-16T17:53:24.214Z,9.08
2023-04-16T17:54:25.117Z,9.11
2023-04-16T17:55:25.988Z,9.07
2023-04-16T17:56:26.860Z,9.11
2023-04-16T17:57:27.956Z,9.05
2023-04-16T17:58:28.892Z,9.02
2023-04-16T17:59:29.770Z,8.99
2023-04-16T18:00:30.652Z,9.01
2023-04-16T18:01:31.629Z,9.07
2023-04-16T18:02:33.062Z,9.01
2023-04-16T18:03:34.624Z,8.99
2023-04-16T18:04:36.516Z,9
2023-04-16T18:05:38.142Z,9.05
2023-04-16T18:06:39.134Z,8.99
2023-04-16T18:07:40.273Z,8.98
2023-04-16T18:08:41.330Z,8.99
2023-04-16T18:09:42.319Z,8.93
2023-04-16T18:10:43.224Z,8.94
2023-04-16T18:11:44.128Z,9.02
2023-04-16T18:12:45.056Z,9.07
2023-04-16T18:13:45.989Z,9.08
2023-04-16T18:14:47.025Z,9.11
2023-04-16T18:15:48.041Z,9.07
2023-04-16T18:16:49.197Z,9.01
2023-04-16T18:17:50.106Z,9.09
2023-04-16T18:18:51.314Z,9.12
2023-04-16T18:19:52.196Z,9.15
